Time;durP1;ratioP1;P1;durP2;ratioP2;P2;SDS_P1;SDS_P2;PMS_P1;PMS_P2;Temp;Humidity;BMP_temperature;BMP_pressure;BME280_temperature;BME280_humidity;BME280_pressure;Samples;Min_cycle;Max_cycle;Signal;HPM_P1;HPM_P2
2023/10/09 00:02:15;;;;;;;;;;;9.90;70.70;;;;;;5194314;22;19926;-82
2023/10/09 00:04:40;;;;;;;;;;;9.90;70.90;;;;;;5191368;22;19972;-82
2023/10/09 00:06:59;;;;;;;;;;;9.90;70.90;;;;;;5188268;22;19921;-83
2023/10/09 00:11:44;;;;;;;;;;;9.90;70.80;;;;;;5190576;22;19911;-82
2023/10/09 00:14:05;;;;;;;;;;;9.90;70.80;;;;;;5189988;22;19960;-83
2023/10/09 00:16:34;;;;;;;;;;;9.90;70.80;;;;;;5169447;22;19950;-83
2023/10/09 00:18:53;;;;;;;;;;;10.10;70.90;;;;;;5189424;22;20029;-83
2023/10/09 00:21:17;;;;;;;;;;;9.90;70.70;;;;;;5179797;22;19970;-81
2023/10/09 00:23:36;;;;;;;;;;;9.90;70.70;;;;;;5187811;22;19914;-84
2023/10/09 00:26:08;;;;;;;;;;;10.00;70.70;;;;;;5190728;22;19913;-83
2023/10/09 00:28:27;;;;;;;;;;;9.90;70.60;;;;;;5189742;22;19922;-82
2023/10/09 00:30:46;;;;;;;;;;;9.90;71.30;;;;;;5189605;22;20513;-83
2023/10/09 00:33:07;;;;;;;;;;;10.00;70.70;;;;;;5195576;22;19903;-82
2023/10/09 00:35:36;;;;;;;;;;;10.00;70.60;;;;;;5210943;22;19946;-81
2023/10/09 00:38:00;;;;;;;;;;;9.90;70.50;;;;;;5191576;22;19934;-83
2023/10/09 00:40:27;;;;;;;;;;;10.00;70.60;;;;;;5209298;22;19951;-83
2023/10/09 00:42:47;;;;;;;;;;;9.90;70.50;;;;;;5192865;22;20102;-83
2023/10/09 00:45:10;;;;;;;;;;;9.90;70.60;;;;;;5188243;22;20285;-82
2023/10/09 00:47:34;;;;;;;;;;;9.90;70.70;;;;;;5165173;22;20363;-82
2023/10/09 00:50:11;;;;;;;;;;;10.00;70.90;;;;;;5167218;22;19918;-83
2023/10/09 00:52:32;;;;;;;;;;;10.00;70.80;;;;;;5163097;22;19996;-82
2023/10/09 00:54:41;;;;;;;;;;;10.00;71.00;;;;;;5185686;22;19907;-81
2023/10/09 00:57:07;;;;;;;;;;;10.00;71.00;;;;;;5187655;22;20024;-83
2023/10/09 00:59:28;;;;;;;;;;;9.90;70.90;;;;;;5188530;22;19907;-82
2023/10/09 01:01:39;;;;;;;;;;;10.00;71.10;;;;;;5161581;22;19911;-81
2023/10/09 01:03:40;;;;;;;;;;;9.90;71.70;;;;;;5186813;22;20527;-84
2023/10/09 01:05:56;;;;;;;;;;;9.90;71.00;;;;;;5185732;22;19976;-83
2023/10/09 01:07:58;;;;;;;;;;;9.90;71.00;;;;;;5135151;23;19915;-82
2023/10/09 01:10:09;;;;;;;;;;;9.90;71.00;;;;;;5187644;22;19912;-83
2023/10/09 01:12:16;;;;;;;;;;;10.00;71.10;;;;;;5159540;22;19943;-83
2023/10/09 01:14:21;;;;;;;;;;;10.00;71.10;;;;;;5184423;22;19903;-82
2023/10/09 01:16:23;;;;;;;;;;;10.00;71.20;;;;;;5159046;23;20523;-83
2023/10/09 01:18:31;;;;;;;;;;;9.90;71.20;;;;;;5152675;23;19907;-82
2023/10/09 01:20:41;;;;;;;;;;;9.90;71.10;;;;;;5153141;23;20268;-83
2023/10/09 01:22:43;;;;;;;;;;;10.00;71.20;;;;;;5128190;23;19915;-82
2023/10/09 01:24:48;;;;;;;;;;;10.00;71.20;;;;;;5180697;22;19987;-82
2023/10/09 01:26:49;;;;;;;;;;;9.90;71.00;;;;;;5186227;22;19911;-82
2023/10/09 01:28:50;;;;;;;;;;;9.90;71.10;;;;;;5160436;23;19958;-82
2023/10/09 01:30:52;;;;;;;;;;;10.00;71.00;;;;;;5157276;23;20003;-81
2023/10/09 01:32:52;;;;;;;;;;;9.90;71.00;;;;;;5157249;22;19927;-82
2023/10/09 01:35:22;;;;;;;;;;;9.90;70.90;;;;;;5184415;22;20459;-83
2023/10/09 01:37:43;;;;;;;;;;;10.00;71.00;;;;;;5184079;22;19988;-82
2023/10/09 01:39:48;;;;;;;;;;;9.90;70.90;;;;;;5181407;22;19911;-83
2023/10/09 01:41:51;;;;;;;;;;;10.00;71.00;;;;;;5154762;22;19907;-83
2023/10/09 01:44:12;;;;;;;;;;;9.90;70.90;;;;;;5176801;22;19918;-83
2023/10/09 01:46:33;;;;;;;;;;;9.90;70.90;;;;;;5181071;22;20327;-83
2023/10/09 01:48:39;;;;;;;;;;;9.90;70.90;;;;;;5181706;22;19908;-83
2023/10/09 01:51:00;;;;;;;;;;;9.90;70.80;;;;;;5159848;22;19911;-82
2023/10/09 01:53:25;;;;;;;;;;;9.90;70.90;;;;;;5161117;22;19947;-83
2023/10/09 01:55:45;;;;;;;;;;;9.90;70.80;;;;;;5157476;22;19908;-82
2023/10/09 01:58:17;;;;;;;;;;;9.90;70.80;;;;;;5185566;22;19973;-83
2023/10/09 02:00:23;;;;;;;;;;;9.90;70.80;;;;;;5185410;22;19907;-83
2023/10/09 02:02:45;;;;;;;;;;;9.80;70.80;;;;;;5164722;22;19946;-83
2023/10/09 02:07:40;;;;;;;;;;;9.80;70.80;;;;;;5205042;22;19943;-83
2023/10/09 02:10:00;;;;;;;;;;;9.80;70.80;;;;;;5200728;22;19922;-82
2023/10/09 02:12:22;;;;;;;;;;;9.80;70.80;;;;;;5185070;22;19919;-81
2023/10/09 02:14:26;;;;;;;;;;;9.80;70.80;;;;;;5160957;23;20245;-83
2023/10/09 02:17:02;;;;;;;;;;;9.90;70.70;;;;;;5166985;22;19973;-82
2023/10/09 02:19:30;;;;;;;;;;;9.90;70.60;;;;;;5188188;22;19982;-83
2023/10/09 02:21:53;;;;;;;;;;;9.90;70.60;;;;;;5183382;22;19907;-83
2023/10/09 02:24:26;;;;;;;;;;;9.80;70.70;;;;;;5186531;22;20037;-83
2023/10/09 02:31:40;;;;;;;;;;;9.80;70.20;;;;;;5189473;22;19907;-82
2023/10/09 02:34:05;;;;;;;;;;;9.80;70.10;;;;;;5189689;22;19943;-81
2023/10/09 02:36:28;;;;;;;;;;;9.70;70.10;;;;;;5190345;22;19907;-82
2023/10/09 02:38:48;;;;;;;;;;;9.70;70.20;;;;;;5190378;22;20005;-83
2023/10/09 02:43:34;;;;;;;;;;;9.70;71.10;;;;;;5186995;22;20445;-83
2023/10/09 02:45:54;;;;;;;;;;;9.60;70.60;;;;;;5185801;22;19907;-83
2023/10/09 02:48:16;;;;;;;;;;;9.60;70.30;;;;;;5188609;22;19911;-84
2023/10/09 02:50:38;;;;;;;;;;;9.60;70.20;;;;;;5163932;22;19983;-84
2023/10/09 02:53:09;;;;;;;;;;;9.60;70.30;;;;;;5186019;22;19907;-83
2023/10/09 02:55:30;;;;;;;;;;;9.50;70.40;;;;;;5187677;22;20028;-83
2023/10/09 02:57:56;;;;;;;;;;;9.60;70.50;;;;;;5187476;22;20155;-83
2023/10/09 03:00:28;;;;;;;;;;;9.50;70.40;;;;;;5184602;22;19903;-82
2023/10/09 03:02:50;;;;;;;;;;;9.40;70.30;;;;;;5186550;22;19911;-83
2023/10/09 03:05:12;;;;;;;;;;;9.50;70.50;;;;;;5187850;22;19907;-84
2023/10/09 03:07:34;;;;;;;;;;;9.50;70.60;;;;;;5187949;22;19918;-83
2023/10/09 03:09:55;;;;;;;;;;;9.50;71.30;;;;;;5187084;22;19954;-83
2023/10/09 03:12:18;;;;;;;;;;;9.40;70.60;;;;;;5187710;22;19956;-83
2023/10/09 03:14:41;;;;;;;;;;;9.50;70.90;;;;;;5190018;22;20352;-83
2023/10/09 03:17:01;;;;;;;;;;;9.50;70.90;;;;;;5166840;22;19965;-83
2023/10/09 03:19:22;;;;;;;;;;;9.50;70.90;;;;;;5187410;22;19933;-83
2023/10/09 03:21:43;;;;;;;;;;;9.40;70.60;;;;;;5188347;22;19907;-82
2023/10/09 03:24:05;;;;;;;;;;;9.50;71.60;;;;;;5187760;22;19926;-83
2023/10/09 03:26:25;;;;;;;;;;;9.40;71.20;;;;;;5187611;22;19903;-83
2023/10/09 03:28:47;;;;;;;;;;;9.50;71.00;;;;;;5188658;22;19912;-83
2023/10/09 03:31:10;;;;;;;;;;;9.50;70.80;;;;;;5189170;22;19911;-82
2023/10/09 03:33:32;;;;;;;;;;;9.50;70.60;;;;;;5189255;22;19911;-83
2023/10/09 03:35:53;;;;;;;;;;;9.40;70.60;;;;;;5164192;22;19907;-83
2023/10/09 03:38:18;;;;;;;;;;;9.50;70.70;;;;;;5185947;22;19907;-83
2023/10/09 03:40:42;;;;;;;;;;;9.40;70.70;;;;;;5186287;22;20000;-82
2023/10/09 03:43:01;;;;;;;;;;;9.50;71.60;;;;;;5188230;22;19914;-83
2023/10/09 03:45:27;;;;;;;;;;;9.40;70.90;;;;;;5186829;22;19976;-83
2023/10/09 03:47:48;;;;;;;;;;;9.50;71.00;;;;;;5188015;22;19918;-82
2023/10/09 03:50:23;;;;;;;;;;;9.40;70.80;;;;;;5189802;22;19955;-84
2023/10/09 03:52:43;;;;;;;;;;;9.40;70.80;;;;;;5189042;22;19931;-83
2023/10/09 03:55:04;;;;;;;;;;;9.40;70.80;;;;;;5185684;22;19969;-83
2023/10/09 03:57:24;;;;;;;;;;;9.40;71.10;;;;;;5188010;22;19911;-83
2023/10/09 03:59:46;;;;;;;;;;;9.40;71.30;;;;;;5186414;22;19960;-83
2023/10/09 04:02:07;;;;;;;;;;;9.40;71.30;;;;;;5187632;22;19961;-83
2023/10/09 04:04:28;;;;;;;;;;;9.40;71.30;;;;;;5186437;22;19990;-84
2023/10/09 04:06:47;;;;;;;;;;;9.40;71.40;;;;;;5184823;22;19945;-82
2023/10/09 04:11:43;;;;;;;;;;;9.40;71.40;;;;;;5187243;22;19918;-81
2023/10/09 04:14:10;;;;;;;;;;;9.40;71.40;;;;;;5186962;22;19919;-83
2023/10/09 04:18:52;;;;;;;;;;;9.50;71.40;;;;;;5190999;22;19990;-84
2023/10/09 04:21:27;;;;;;;;;;;9.40;71.30;;;;;;5197370;22;19930;-83
2023/10/09 04:23:59;;;;;;;;;;;9.40;71.30;;;;;;5205061;22;19957;-84
2023/10/09 04:26:20;;;;;;;;;;;9.40;71.40;;;;;;5190001;22;19914;-83
2023/10/09 04:28:42;;;;;;;;;;;9.40;71.40;;;;;;5189295;22;19918;-83
2023/10/09 04:31:06;;;;;;;;;;;9.50;71.50;;;;;;5189910;22;19949;-84
2023/10/09 04:36:21;;;;;;;;;;;9.40;71.40;;;;;;5190522;22;19918;-84
2023/10/09 04:38:55;;;;;;;;;;;9.40;71.40;;;;;;5193501;22;19934;-84
2023/10/09 04:41:27;;;;;;;;;;;9.40;71.40;;;;;;5195401;22;20314;-84
2023/10/09 04:43:46;;;;;;;;;;;9.40;71.60;;;;;;5193347;22;19960;-85
2023/10/09 04:46:13;;;;;;;;;;;9.40;71.60;;;;;;5190901;22;19918;-85
2023/10/09 04:48:38;;;;;;;;;;;9.50;71.90;;;;;;5190349;22;19987;-84
2023/10/09 04:56:32;;;;;;;;;;;9.50;71.80;;;;;;5192673;22;20405;-84
2023/10/09 04:59:03;;;;;;;;;;;9.50;71.80;;;;;;5192380;22;19913;-84
2023/10/09 05:01:35;;;;;;;;;;;9.40;71.80;;;;;;5191901;22;19914;-83
2023/10/09 05:03:56;;;;;;;;;;;9.50;72.60;;;;;;5193099;22;19958;-84
2023/10/09 05:06:42;;;;;;;;;;;9.50;71.80;;;;;;5170389;22;19961;-83
2023/10/09 05:09:13;;;;;;;;;;;9.50;71.70;;;;;;5194586;22;19958;-85
2023/10/09 05:11:53;;;;;;;;;;;9.40;71.70;;;;;;5194405;22;19913;-83
2023/10/09 05:14:12;;;;;;;;;;;9.50;72.70;;;;;;5174237;22;19915;-84
2023/10/09 05:16:33;;;;;;;;;;;9.50;71.90;;;;;;5194493;22;19960;-82
2023/10/09 05:18:56;;;;;;;;;;;9.50;71.90;;;;;;5192040;22;19946;-84
2023/10/09 05:24:15;;;;;;;;;;;9.50;72.10;;;;;;5189008;22;19990;-82
2023/10/09 05:32:03;;;;;;;;;;;9.50;72.50;;;;;;5190379;22;19962;-83
2023/10/09 05:34:23;;;;;;;;;;;9.50;73.20;;;;;;5191796;22;19957;-82
2023/10/09 05:36:47;;;;;;;;;;;9.60;72.50;;;;;;5191250;22;19929;-82
2023/10/09 05:39:30;;;;;;;;;;;9.50;72.50;;;;;;5189764;22;19910;-83
2023/10/09 05:41:53;;;;;;;;;;;9.50;72.50;;;;;;5190770;22;20105;-84
2023/10/09 05:49:46;;;;;;;;;;;9.60;72.50;;;;;;5188686;22;19910;-82
2023/10/09 05:52:32;;;;;;;;;;;9.60;72.60;;;;;;5165163;22;19911;-84
2023/10/09 06:06:01;;;;;;;;;;;9.70;72.50;;;;;;5187986;22;19911;-83
2023/10/09 06:08:26;;;;;;;;;;;9.70;73.30;;;;;;5187229;22;19950;-82
2023/10/09 06:10:48;;;;;;;;;;;9.70;72.60;;;;;;5187277;22;19954;-82
2023/10/09 06:13:26;;;;;;;;;;;9.80;73.40;;;;;;5165885;22;19998;-84
2023/10/09 06:26:24;;;;;;;;;;;9.80;73.60;;;;;;5210544;22;19913;-82
2023/10/09 06:28:49;;;;;;;;;;;9.90;73.60;;;;;;5195784;22;19922;-82
2023/10/09 06:31:29;;;;;;;;;;;9.80;73.60;;;;;;5169824;22;20393;-83
2023/10/09 06:36:31;;;;;;;;;;;9.90;74.10;;;;;;5209988;22;19933;-81
2023/10/09 06:39:50;;;;;;;;;;;9.80;74.00;;;;;;5202862;22;19918;-82
2023/10/09 06:41:37;;;;;;;;;;;9.90;73.30;;;;;;5190266;22;19931;-81
2023/10/09 06:43:56;;;;;;;;;;;9.90;73.20;;;;;;5190247;22;20314;-82
2023/10/09 06:48:52;;;;;;;;;;;9.90;73.30;;;;;;5192650;22;19976;-82
2023/10/09 06:58:47;;;;;;;;;;;10.00;73.40;;;;;;5191637;22;19930;-82
2023/10/09 07:01:25;;;;;;;;;;;10.00;73.40;;;;;;5190442;22;19986;-83
2023/10/09 07:03:53;;;;;;;;;;;10.00;73.40;;;;;;5169273;22;19961;-82
2023/10/09 07:06:25;;;;;;;;;;;10.10;73.40;;;;;;5190469;22;19909;-83
2023/10/09 07:08:57;;;;;;;;;;;10.10;73.30;;;;;;5189488;22;20043;-81
2023/10/09 07:13:55;;;;;;;;;;;10.20;73.50;;;;;;5190993;22;19934;-83
2023/10/09 07:16:28;;;;;;;;;;;10.30;74.30;;;;;;5191335;22;20394;-82
2023/10/09 07:18:54;;;;;;;;;;;10.20;72.90;;;;;;5167553;22;19958;-83
2023/10/09 07:21:17;;;;;;;;;;;10.30;73.60;;;;;;5191301;22;19941;-83
2023/10/09 07:23:36;;;;;;;;;;;10.20;74.30;;;;;;5192521;22;19914;-83
2023/10/09 07:26:17;;;;;;;;;;;10.20;73.50;;;;;;5190204;22;19943;-83
2023/10/09 07:28:36;;;;;;;;;;;10.30;74.20;;;;;;5191123;22;20274;-82
2023/10/09 07:30:58;;;;;;;;;;;10.40;73.50;;;;;;5190020;22;19909;-82
2023/10/09 07:33:17;;;;;;;;;;;10.30;73.40;;;;;;5169280;22;19966;-82
2023/10/09 07:38:03;;;;;;;;;;;10.40;73.60;;;;;;5194394;22;19914;-83
2023/10/09 07:40:31;;;;;;;;;;;10.40;73.60;;;;;;5192887;22;19984;-82
2023/10/09 07:42:53;;;;;;;;;;;10.40;73.60;;;;;;5191826;22;19918;-82
2023/10/09 07:46:29;;;;;;;;;;;10.40;73.60;;;;;;5190540;22;19933;-82
2023/10/09 07:50:21;;;;;;;;;;;10.60;73.70;;;;;;5190662;22;20243;-83
2023/10/09 07:52:44;;;;;;;;;;;10.50;73.60;;;;;;5195709;22;19913;-82
2023/10/09 07:55:06;;;;;;;;;;;10.60;73.60;;;;;;5174402;22;20377;-83
2023/10/09 07:57:28;;;;;;;;;;;10.50;74.60;;;;;;5196616;22;19913;-83
2023/10/09 08:00:11;;;;;;;;;;;10.60;73.80;;;;;;5195194;22;19914;-83
2023/10/09 08:02:34;;;;;;;;;;;10.60;73.80;;;;;;5196999;22;19930;-80
2023/10/09 08:04:53;;;;;;;;;;;10.60;73.80;;;;;;5194252;22;19933;-81
2023/10/09 08:07:34;;;;;;;;;;;10.70;74.10;;;;;;5195387;22;19918;-84
2023/10/09 08:17:37;;;;;;;;;;;10.70;74.00;;;;;;5195375;22;20418;-83
2023/10/09 08:19:57;;;;;;;;;;;10.70;74.00;;;;;;5197404;22;19910;-83
2023/10/09 08:22:42;;;;;;;;;;;10.80;73.90;;;;;;5195248;22;19949;-83
2023/10/09 08:24:57;;;;;;;;;;;10.90;73.90;;;;;;5193456;22;19913;-83
2023/10/09 08:29:47;;;;;;;;;;;10.80;73.90;;;;;;5194902;22;20429;-83
2023/10/09 08:32:18;;;;;;;;;;;10.80;73.70;;;;;;5193738;22;19934;-82
2023/10/09 08:34:48;;;;;;;;;;;10.90;74.20;;;;;;5191974;22;19944;-82
2023/10/09 08:37:12;;;;;;;;;;;10.80;73.90;;;;;;5192557;22;19914;-83
2023/10/09 08:39:35;;;;;;;;;;;11.00;74.00;;;;;;5194531;22;19911;-83
2023/10/09 08:41:57;;;;;;;;;;;10.90;74.10;;;;;;5194349;22;19918;-84
2023/10/09 08:44:22;;;;;;;;;;;10.90;74.10;;;;;;5193496;22;19946;-83
2023/10/09 08:46:42;;;;;;;;;;;10.90;74.10;;;;;;5193491;22;19910;-81
2023/10/09 08:49:05;;;;;;;;;;;11.00;74.30;;;;;;5194593;22;19964;-82
2023/10/09 08:51:25;;;;;;;;;;;11.20;74.50;;;;;;5192767;22;20405;-83
2023/10/09 08:53:45;;;;;;;;;;;11.10;74.40;;;;;;5195099;22;20351;-84
2023/10/09 08:56:04;;;;;;;;;;;11.20;74.70;;;;;;5196558;22;19946;-82
2023/10/09 08:58:34;;;;;;;;;;;11.10;74.80;;;;;;5187022;22;19910;-81
2023/10/09 09:00:55;;;;;;;;;;;11.20;75.40;;;;;;5192118;22;19910;-83
2023/10/09 09:03:18;;;;;;;;;;;11.30;75.70;;;;;;5192046;22;20350;-84
2023/10/09 09:05:37;;;;;;;;;;;11.20;75.00;;;;;;5170377;22;19931;-83
2023/10/09 09:07:59;;;;;;;;;;;11.20;75.40;;;;;;5190495;22;19922;-82
2023/10/09 09:10:34;;;;;;;;;;;11.20;75.20;;;;;;5191464;22;20448;-83
2023/10/09 09:13:00;;;;;;;;;;;11.20;74.90;;;;;;5166922;22;19914;-83
2023/10/09 09:15:20;;;;;;;;;;;11.20;74.00;;;;;;5189318;22;20426;-81
2023/10/09 09:17:41;;;;;;;;;;;11.30;74.30;;;;;;5169120;22;19980;-81
2023/10/09 09:20:22;;;;;;;;;;;11.20;74.20;;;;;;5190021;22;19983;-83
2023/10/09 09:22:56;;;;;;;;;;;11.30;74.30;;;;;;5191036;22;19913;-81
2023/10/09 09:25:15;;;;;;;;;;;11.30;74.40;;;;;;5167264;22;20310;-83
2023/10/09 09:28:05;;;;;;;;;;;11.30;74.70;;;;;;5189878;22;19997;-82
2023/10/09 09:30:33;;;;;;;;;;;11.30;74.60;;;;;;5192579;22;19914;-83
2023/10/09 09:33:15;;;;;;;;;;;11.40;74.60;;;;;;5167605;22;20533;-82
2023/10/09 09:35:30;;;;;;;;;;;11.40;74.60;;;;;;5192700;22;19917;-81
2023/10/09 09:37:52;;;;;;;;;;;11.40;74.60;;;;;;5192447;22;19910;-82
2023/10/09 09:40:30;;;;;;;;;;;11.50;74.80;;;;;;5194481;22;19918;-82
2023/10/09 09:42:49;;;;;;;;;;;11.60;74.90;;;;;;5193980;22;19918;-83
2023/10/09 09:45:11;;;;;;;;;;;11.60;74.90;;;;;;5193035;22;19931;-84
2023/10/09 09:47:35;;;;;;;;;;;11.70;74.80;;;;;;5193969;22;20538;-83
2023/10/09 09:50:00;;;;;;;;;;;11.70;74.90;;;;;;5195271;22;19914;-83
2023/10/09 09:52:24;;;;;;;;;;;11.80;74.90;;;;;;5195837;22;19961;-83
2023/10/09 09:54:43;;;;;;;;;;;11.90;75.00;;;;;;5192853;22;19925;-83
2023/10/09 09:57:08;;;;;;;;;;;11.80;74.90;;;;;;5195139;22;19914;-83
2023/10/09 09:59:29;;;;;;;;;;;11.90;74.80;;;;;;5195050;22;19955;-82
2023/10/09 10:02:06;;;;;;;;;;;12.00;75.00;;;;;;5192501;22;20041;-83
2023/10/09 10:04:26;;;;;;;;;;;12.00;74.80;;;;;;5192873;22;19918;-83
2023/10/09 10:06:47;;;;;;;;;;;12.10;75.10;;;;;;5169991;22;19949;-83
2023/10/09 10:09:07;;;;;;;;;;;12.00;75.00;;;;;;5196278;22;20457;-83
2023/10/09 10:11:44;;;;;;;;;;;12.10;75.00;;;;;;5195330;22;20370;-83
2023/10/09 10:14:07;;;;;;;;;;;12.10;74.90;;;;;;5173550;22;19914;-82
2023/10/09 10:16:34;;;;;;;;;;;12.10;74.80;;;;;;5196170;22;19969;-84
2023/10/09 10:19:06;;;;;;;;;;;12.10;75.10;;;;;;5196773;22;19915;-83
2023/10/09 10:21:49;;;;;;;;;;;12.10;74.60;;;;;;5195384;22;19931;-83
2023/10/09 10:24:30;;;;;;;;;;;12.10;75.30;;;;;;5196660;22;19914;-83
2023/10/09 10:27:09;;;;;;;;;;;12.10;74.60;;;;;;5169964;22;19914;-81
2023/10/09 10:29:34;;;;;;;;;;;12.10;74.50;;;;;;5191565;22;19914;-83
2023/10/09 10:31:54;;;;;;;;;;;12.10;75.30;;;;;;5192045;22;19914;-83
2023/10/09 10:34:14;;;;;;;;;;;12.10;74.50;;;;;;5192317;22;19990;-83
2023/10/09 10:36:34;;;;;;;;;;;12.10;74.60;;;;;;5192626;22;19957;-83
2023/10/09 10:39:11;;;;;;;;;;;12.10;74.60;;;;;;5193764;22;20362;-83
2023/10/09 10:41:35;;;;;;;;;;;12.20;74.80;;;;;;5190913;22;20355;-83
2023/10/09 10:43:59;;;;;;;;;;;12.20;75.00;;;;;;5169148;22;20393;-83
2023/10/09 10:46:30;;;;;;;;;;;12.20;75.00;;;;;;5191618;22;19961;-82
2023/10/09 10:48:58;;;;;;;;;;;12.20;75.40;;;;;;5170905;22;19918;-82
2023/10/09 10:51:21;;;;;;;;;;;12.20;75.90;;;;;;5194252;22;19911;-82
2023/10/09 10:54:26;;;;;;;;;;;12.30;75.20;;;;;;5194924;22;19918;-81
2023/10/09 10:56:37;;;;;;;;;;;12.20;75.00;;;;;;5193457;22;19918;-82
2023/10/09 11:01:50;;;;;;;;;;;12.30;74.90;;;;;;5195161;22;20331;-81
2023/10/09 11:04:12;;;;;;;;;;;12.30;74.90;;;;;;5193156;22;19994;-83
2023/10/09 11:06:37;;;;;;;;;;;12.30;74.70;;;;;;5176031;22;19915;-81
2023/10/09 11:09:08;;;;;;;;;;;12.30;74.60;;;;;;5175932;22;20075;-83
2023/10/09 11:11:32;;;;;;;;;;;12.30;74.30;;;;;;5176213;22;19911;-83
2023/10/09 11:13:57;;;;;;;;;;;12.30;74.20;;;;;;5197008;22;19910;-81
2023/10/09 11:16:32;;;;;;;;;;;12.20;74.20;;;;;;5197134;22;19918;-83
2023/10/09 11:18:51;;;;;;;;;;;12.40;74.30;;;;;;5192193;22;19961;-82
2023/10/09 11:25:53;;;;;;;;;;;12.30;74.40;;;;;;5205364;22;19926;-81
2023/10/09 11:28:29;;;;;;;;;;;12.30;74.40;;;;;;5214904;22;19910;-81
2023/10/09 11:30:55;;;;;;;;;;;12.30;74.60;;;;;;5213374;22;20284;-82
2023/10/09 11:33:14;;;;;;;;;;;12.40;74.70;;;;;;5205066;22;19906;-82
2023/10/09 11:35:56;;;;;;;;;;;12.40;74.70;;;;;;5214505;22;19896;-81
2023/10/09 11:38:21;;;;;;;;;;;12.40;74.90;;;;;;5213991;22;19907;-83
2023/10/09 11:43:13;;;;;;;;;;;12.60;74.90;;;;;;5193914;22;20381;-83
2023/10/09 11:45:37;;;;;;;;;;;12.50;74.80;;;;;;5169454;22;20405;-81
2023/10/09 11:50:17;;;;;;;;;;;12.60;75.10;;;;;;5194540;22;19977;-83
2023/10/09 11:52:45;;;;;;;;;;;12.50;75.20;;;;;;5192383;22;19910;-83
2023/10/09 11:55:14;;;;;;;;;;;12.40;74.90;;;;;;5195024;22;19910;-84
2023/10/09 11:57:34;;;;;;;;;;;12.50;74.70;;;;;;5171071;22;19914;-83
2023/10/09 11:59:54;;;;;;;;;;;12.50;74.60;;;;;;5194658;22;19934;-83
2023/10/09 12:02:14;;;;;;;;;;;12.50;74.70;;;;;;5195506;22;19903;-83
2023/10/09 12:04:34;;;;;;;;;;;12.50;74.60;;;;;;5196041;22;19950;-83
2023/10/09 12:07:06;;;;;;;;;;;12.60;74.50;;;;;;5190633;22;19914;-82
2023/10/09 12:09:25;;;;;;;;;;;12.50;75.90;;;;;;5188734;22;19965;-86
2023/10/09 12:11:52;;;;;;;;;;;12.50;76.20;;;;;;5186180;22;19973;-87
2023/10/09 12:14:11;;;;;;;;;;;12.50;75.70;;;;;;5187069;22;19953;-87
2023/10/09 12:16:32;;;;;;;;;;;12.50;76.10;;;;;;5185469;22;19927;-87
2023/10/09 12:18:53;;;;;;;;;;;12.60;76.50;;;;;;5188039;22;19913;-87
2023/10/09 12:21:15;;;;;;;;;;;12.50;76.00;;;;;;5184504;22;20393;-87
2023/10/09 12:23:36;;;;;;;;;;;12.70;76.70;;;;;;5183492;22;20240;-86
2023/10/09 12:25:56;;;;;;;;;;;12.60;75.70;;;;;;5185512;22;19957;-87
2023/10/09 12:28:20;;;;;;;;;;;12.60;76.10;;;;;;5185801;22;19949;-88
2023/10/09 12:30:41;;;;;;;;;;;12.70;76.10;;;;;;5186233;22;19926;-85
2023/10/09 12:33:00;;;;;;;;;;;12.60;75.70;;;;;;5162859;22;19938;-86
2023/10/09 12:35:19;;;;;;;;;;;12.60;75.90;;;;;;5186161;22;20394;-86
2023/10/09 12:37:40;;;;;;;;;;;12.60;76.00;;;;;;5187066;22;19910;-87
2023/10/09 12:40:05;;;;;;;;;;;12.70;76.00;;;;;;5186455;22;19931;-88
2023/10/09 12:42:24;;;;;;;;;;;12.60;75.70;;;;;;5185445;22;19911;-83
2023/10/09 12:44:44;;;;;;;;;;;12.60;75.80;;;;;;5186855;22;19950;-82
2023/10/09 12:47:04;;;;;;;;;;;12.70;76.40;;;;;;5187438;22;20398;-82
2023/10/09 12:49:26;;;;;;;;;;;12.70;76.60;;;;;;5189294;22;19993;-83
2023/10/09 12:51:46;;;;;;;;;;;12.70;77.10;;;;;;5186216;22;20462;-84
2023/10/09 12:54:05;;;;;;;;;;;12.70;76.90;;;;;;5186756;22;20255;-83
2023/10/09 12:56:37;;;;;;;;;;;12.70;76.80;;;;;;5187229;22;19990;-83
2023/10/09 12:58:56;;;;;;;;;;;12.80;76.60;;;;;;5162845;22;20014;-83
2023/10/09 13:01:16;;;;;;;;;;;12.80;77.40;;;;;;5187789;22;19949;-83
2023/10/09 13:03:38;;;;;;;;;;;12.80;76.70;;;;;;5188365;22;19909;-84
2023/10/09 13:05:58;;;;;;;;;;;12.90;78.10;;;;;;5189474;22;19914;-83
2023/10/09 13:08:21;;;;;;;;;;;12.90;77.40;;;;;;5164315;22;20247;-84
2023/10/09 13:10:40;;;;;;;;;;;12.90;77.10;;;;;;5186739;22;19960;-83
2023/10/09 13:12:59;;;;;;;;;;;13.00;77.70;;;;;;5187713;22;20450;-83
2023/10/09 13:15:20;;;;;;;;;;;13.00;77.70;;;;;;5187486;22;19917;-83
2023/10/09 13:17:39;;;;;;;;;;;13.10;77.80;;;;;;5187532;22;19915;-83
2023/10/09 13:19:59;;;;;;;;;;;13.00;78.30;;;;;;5188223;22;20021;-83
2023/10/09 13:22:18;;;;;;;;;;;13.00;78.50;;;;;;5189691;22;19914;-83
2023/10/09 13:24:39;;;;;;;;;;;13.00;78.10;;;;;;5189886;22;19990;-83
2023/10/09 13:26:58;;;;;;;;;;;13.10;77.80;;;;;;5189397;22;20033;-82
2023/10/09 13:29:22;;;;;;;;;;;13.00;77.30;;;;;;5187535;22;19926;-83
2023/10/09 13:31:46;;;;;;;;;;;13.00;77.30;;;;;;5166056;22;19915;-83
2023/10/09 13:34:10;;;;;;;;;;;13.10;78.30;;;;;;5190288;22;19909;-84
2023/10/09 13:36:31;;;;;;;;;;;13.10;79.00;;;;;;5167910;22;20219;-83
2023/10/09 13:38:50;;;;;;;;;;;12.90;78.20;;;;;;5189786;22;19941;-84
2023/10/09 13:41:14;;;;;;;;;;;12.90;78.40;;;;;;5190565;22;20331;-83
2023/10/09 13:43:33;;;;;;;;;;;12.90;79.40;;;;;;5167342;22;19950;-83
2023/10/09 13:45:52;;;;;;;;;;;13.00;78.50;;;;;;5191153;22;20581;-82
2023/10/09 13:48:12;;;;;;;;;;;13.00;78.30;;;;;;5191743;22;19921;-83
2023/10/09 13:50:35;;;;;;;;;;;12.90;78.90;;;;;;5191806;22;19950;-83
2023/10/09 13:52:54;;;;;;;;;;;12.90;80.00;;;;;;5189206;22;19968;-83
2023/10/09 13:55:17;;;;;;;;;;;12.90;79.30;;;;;;5189821;22;20184;-83
2023/10/09 13:57:36;;;;;;;;;;;12.80;79.20;;;;;;5192879;22;19963;-82
2023/10/09 13:59:56;;;;;;;;;;;12.90;79.50;;;;;;5212115;22;19910;-82
2023/10/09 14:02:19;;;;;;;;;;;12.90;79.60;;;;;;5196884;22;19929;-84
2023/10/09 14:04:38;;;;;;;;;;;12.90;80.20;;;;;;5171970;22;19960;-84
2023/10/09 14:06:58;;;;;;;;;;;12.90;79.40;;;;;;5195737;22;20484;-84
2023/10/09 14:12:06;;;;;;;;;;;12.90;81.00;;;;;;5196809;22;19913;-83
2023/10/09 14:14:26;;;;;;;;;;;12.90;80.30;;;;;;5174566;22;19929;-84
2023/10/09 14:16:45;;;;;;;;;;;12.90;80.50;;;;;;5198476;22;19915;-83
2023/10/09 14:19:08;;;;;;;;;;;12.90;80.50;;;;;;5196371;22;19910;-83
2023/10/09 14:21:30;;;;;;;;;;;13.00;80.50;;;;;;5195371;22;19934;-84
2023/10/09 14:23:49;;;;;;;;;;;13.00;80.10;;;;;;5170723;22;20170;-82
2023/10/09 14:26:08;;;;;;;;;;;13.10;80.00;;;;;;5196202;22;19983;-83
2023/10/09 14:28:28;;;;;;;;;;;13.00;79.80;;;;;;5191983;22;19977;-83
2023/10/09 14:30:56;;;;;;;;;;;13.10;79.90;;;;;;5172605;22;19985;-84
2023/10/09 14:33:22;;;;;;;;;;;13.10;79.60;;;;;;5172962;22;19918;-83
2023/10/09 14:35:42;;;;;;;;;;;13.10;79.20;;;;;;5193620;22;20036;-84
2023/10/09 14:38:04;;;;;;;;;;;13.10;79.10;;;;;;5194778;22;20298;-82
2023/10/09 14:40:31;;;;;;;;;;;13.20;79.00;;;;;;5196027;22;20315;-84
2023/10/09 14:42:52;;;;;;;;;;;13.20;78.80;;;;;;5195671;22;20313;-83
2023/10/09 14:45:15;;;;;;;;;;;13.20;78.90;;;;;;5192962;22;19918;-84
2023/10/09 14:47:37;;;;;;;;;;;13.20;79.60;;;;;;5193331;22;19915;-83
2023/10/09 14:50:01;;;;;;;;;;;13.20;78.70;;;;;;5194258;22;19910;-83
2023/10/09 14:52:21;;;;;;;;;;;13.20;78.80;;;;;;5195371;22;19974;-82
2023/10/09 14:54:40;;;;;;;;;;;13.30;78.80;;;;;;5194961;22;19934;-83
2023/10/09 14:57:00;;;;;;;;;;;13.30;78.70;;;;;;5194745;22;19929;-82
2023/10/09 14:59:19;;;;;;;;;;;13.20;78.60;;;;;;5195515;22;19910;-83
2023/10/09 15:01:38;;;;;;;;;;;13.30;78.50;;;;;;5193563;22;19914;-83
2023/10/09 15:03:59;;;;;;;;;;;13.30;78.50;;;;;;5192915;22;19956;-82
2023/10/09 15:06:18;;;;;;;;;;;13.30;78.40;;;;;;5190711;22;19911;-84
2023/10/09 15:08:39;;;;;;;;;;;13.40;79.20;;;;;;5190816;22;20305;-84
2023/10/09 15:10:59;;;;;;;;;;;13.30;78.70;;;;;;5194618;22;19914;-82
2023/10/09 15:13:18;;;;;;;;;;;13.30;79.90;;;;;;5188802;22;19952;-84
2023/10/09 15:15:40;;;;;;;;;;;13.30;80.50;;;;;;5189028;22;19937;-82
2023/10/09 15:17:59;;;;;;;;;;;13.30;79.50;;;;;;5190662;22;19926;-83
2023/10/09 15:20:20;;;;;;;;;;;13.20;80.00;;;;;;5190044;22;19911;-82
2023/10/09 15:22:43;;;;;;;;;;;13.20;79.30;;;;;;5187037;22;19914;-81
2023/10/09 15:25:06;;;;;;;;;;;13.10;79.20;;;;;;5189670;22;19918;-83
2023/10/09 15:27:25;;;;;;;;;;;13.10;80.10;;;;;;5188465;22;19914;-83
2023/10/09 15:29:45;;;;;;;;;;;13.20;79.30;;;;;;5187056;22;19918;-82
2023/10/09 15:32:04;;;;;;;;;;;13.10;79.50;;;;;;5189181;22;19914;-83
2023/10/09 15:34:24;;;;;;;;;;;13.00;79.40;;;;;;5188251;22;19945;-83
2023/10/09 15:36:46;;;;;;;;;;;13.00;80.30;;;;;;5189204;22;19961;-81
2023/10/09 15:39:11;;;;;;;;;;;13.10;79.70;;;;;;5165518;22;19938;-84
2023/10/09 15:41:31;;;;;;;;;;;13.00;79.90;;;;;;5190041;22;19949;-83
2023/10/09 15:43:51;;;;;;;;;;;12.90;79.60;;;;;;5187215;22;19966;-83